Green Sea, South Carolina
Current Conditions -  °F | °C
As of 11:15 PM on Tuesday 27 Jan 2015 (Local Time) from KCPC Reporting Station
Clear Clear  
Wind Chill: 37°   Ceiling: Unl
Heat Index: 37°   Visibility: 10mi
Dew Point: 17°   Wind: 0mph
Humidity: 43%   Direction: NA
Pressure: 29.97"   Gusts: NA
Location:  34.13°N, 78.98°W
Report Text: KCPC 280415Z AUTO 00000KT 10SM CLR 03/M08 A2997 RMK AO2 T00291085
Loading
Personal Weather Stations






























Interactive Weather Map New forecast layout! Learn more

10-Day Weather Forecast

Advertisements
Track Severe Weather on mobile